Time;durP1;ratioP1;P1;durP2;ratioP2;P2;SDS_P1;SDS_P2;PMS_P1;PMS_P2;Temp;Humidity;BMP_temperature;BMP_pressure;BME280_temperature;BME280_humidity;BME280_pressure;Samples;Min_cycle;Max_cycle;Signal;HPM_P1;HPM_P2
2022/12/27 00:00:26;;;;;;;100.17;60.40;;;;;;;;;;4363482;32;318390;-84
2022/12/27 00:02:52;;;;;;;107.77;60.70;;;;;;;;;;4371659;32;319422;-83
2022/12/27 00:05:19;;;;;;;137.63;72.37;;;;;;;;;;4361144;32;334549;-85
2022/12/27 00:07:47;;;;;;;131.50;75.17;;;;;;;;;;4372952;32;319350;-85
2022/12/27 00:10:14;;;;;;;137.77;75.40;;;;;;;;;;4361455;32;318596;-84
2022/12/27 00:12:41;;;;;;;135.30;76.90;;;;;;;;;;4372248;32;319360;-84
2022/12/27 00:15:09;;;;;;;146.87;78.60;;;;;;;;;;4362683;32;319477;-87
2022/12/27 00:17:35;;;;;;;130.97;76.97;;;;;;;;;;4371250;32;319349;-84
2022/12/27 00:20:03;;;;;;;110.57;63.23;;;;;;;;;;4373044;32;319836;-86
2022/12/27 00:22:29;;;;;;;108.00;61.17;;;;;;;;;;4362141;32;319508;-85
2022/12/27 00:24:58;;;;;;;111.70;64.87;;;;;;;;;;4372783;32;318399;-85
2022/12/27 00:27:24;;;;;;;106.10;63.17;;;;;;;;;;4361511;32;326777;-85
2022/12/27 00:29:51;;;;;;;107.07;61.63;;;;;;;;;;4372966;32;319365;-84
2022/12/27 00:32:18;;;;;;;102.20;60.57;;;;;;;;;;4362567;32;319369;-83
2022/12/27 00:34:44;;;;;;;90.03;57.00;;;;;;;;;;4370904;32;319339;-83
2022/12/27 00:37:13;;;;;;;96.53;55.50;;;;;;;;;;4362101;32;318728;-83
2022/12/27 00:39:39;;;;;;;90.40;51.80;;;;;;;;;;4370825;32;318283;-83
2022/12/27 00:42:07;;;;;;;83.27;50.97;;;;;;;;;;4361951;32;318885;-85
2022/12/27 00:44:34;;;;;;;89.43;49.47;;;;;;;;;;4371987;32;318459;-84
2022/12/27 00:47:01;;;;;;;78.93;47.10;;;;;;;;;;4372073;32;317653;-85
2022/12/27 00:49:28;;;;;;;83.77;46.43;;;;;;;;;;4360879;32;317453;-84
2022/12/27 00:51:54;;;;;;;80.07;45.50;;;;;;;;;;4371127;32;318309;-84
2022/12/27 00:54:21;;;;;;;76.40;46.33;;;;;;;;;;4360936;32;317599;-83
2022/12/27 00:56:48;;;;;;;63.80;40.30;;;;;;;;;;4373329;32;318221;-82
2022/12/27 00:59:16;;;;;;;70.77;43.30;;;;;;;;;;4363662;32;318316;-83
2022/12/27 01:01:43;;;;;;;86.50;41.73;;;;;;;;;;4372977;32;317581;-83
2022/12/27 01:04:12;;;;;;;72.77;42.13;;;;;;;;;;4363127;32;320455;-83
2022/12/27 01:06:39;;;;;;;68.27;38.93;;;;;;;;;;4374558;32;318279;-84
2022/12/27 01:09:06;;;;;;;86.07;50.33;;;;;;;;;;4365283;32;318424;-83
2022/12/27 01:11:33;;;;;;;91.67;52.90;;;;;;;;;;4374677;32;318229;-86
2022/12/27 01:14:02;;;;;;;104.57;58.97;;;;;;;;;;4374969;32;318584;-86
2022/12/27 01:16:31;;;;;;;122.80;66.37;;;;;;;;;;4364710;32;319541;-85
2022/12/27 01:18:58;;;;;;;136.87;73.70;;;;;;;;;;4374805;32;318495;-84
2022/12/27 01:21:26;;;;;;;141.57;75.10;;;;;;;;;;4365002;32;319268;-86
2022/12/27 01:23:54;;;;;;;154.27;81.50;;;;;;;;;;4374819;32;319161;-85
2022/12/27 01:26:22;;;;;;;169.07;91.23;;;;;;;;;;4363528;32;326700;-86
2022/12/27 01:28:50;;;;;;;153.87;87.20;;;;;;;;;;4374662;32;319308;-86
2022/12/27 01:31:19;;;;;;;221.17;112.63;;;;;;;;;;4364184;32;319095;-87
2022/12/27 01:33:48;;;;;;;197.83;108.93;;;;;;;;;;4375158;32;319553;-87
2022/12/27 01:36:19;;;;;;;181.23;102.80;;;;;;;;;;4363870;32;352109;-88
2022/12/27 01:38:47;;;;;;;155.90;86.33;;;;;;;;;;4374664;32;320629;-86
2022/12/27 01:44:49;;;;;;;109.40;63.03;;;;;;;;;;4321157;32;318840;-85
2022/12/27 01:47:20;;;;;;;107.43;62.60;;;;;;;;;;4360845;32;319845;-85
2022/12/27 01:50:03;;;;;;;81.70;50.17;;;;;;;;;;4374471;32;319113;-85
2022/12/27 01:52:35;;;;;;;81.10;50.83;;;;;;;;;;4363517;32;317717;-85
2022/12/27 01:55:10;;;;;;;83.30;50.63;;;;;;;;;;4373546;32;318412;-85
2022/12/27 01:57:37;;;;;;;72.03;42.60;;;;;;;;;;4361872;32;416651;-86
2022/12/27 02:00:08;;;;;;;77.83;43.23;;;;;;;;;;4374492;32;318238;-87
2022/12/27 02:02:35;;;;;;;75.33;43.07;;;;;;;;;;4358762;32;405638;-86
2022/12/27 02:05:03;;;;;;;74.43;43.33;;;;;;;;;;4392816;32;317522;-86
2022/12/27 02:07:39;;;;;;;75.93;41.00;;;;;;;;;;4363764;32;317679;-85
2022/12/27 02:10:08;;;;;;;70.47;41.67;;;;;;;;;;4373056;32;318253;-85
2022/12/27 02:12:35;;;;;;;70.10;42.80;;;;;;;;;;4361005;32;418021;-85
2022/12/27 02:15:03;;;;;;;72.30;43.00;;;;;;;;;;4374728;32;318406;-86
2022/12/27 02:17:32;;;;;;;64.63;40.60;;;;;;;;;;4362308;32;318293;-84
2022/12/27 02:20:06;;;;;;;81.03;44.53;;;;;;;;;;4372952;32;318554;-86
2022/12/27 02:26:12;;;;;;;78.17;43.47;;;;;;;;;;4361787;32;388955;-87
2022/12/27 02:28:58;;;;;;;83.30;50.00;;;;;;;;;;4362182;32;418052;-88
2022/12/27 02:31:30;;;;;;;89.07;51.27;;;;;;;;;;4363964;32;317492;-87
2022/12/27 02:34:00;;;;;;;104.63;56.50;;;;;;;;;;4375555;32;317430;-88
2022/12/27 02:36:30;;;;;;;106.40;63.03;;;;;;;;;;4363544;32;323141;-84
2022/12/27 02:39:01;;;;;;;151.23;85.57;;;;;;;;;;4372260;32;319379;-86
2022/12/27 02:55:32;;;;;;;352.73;190.80;;;;;;;;;;4361506;32;351214;-85
2022/12/27 02:58:09;;;;;;;279.17;151.70;;;;;;;;;;4373661;32;320538;-85
2022/12/27 03:03:47;;;;;;;164.63;90.57;;;;;;;;;;4363252;32;320229;-86
2022/12/27 03:06:47;;;;;;;122.77;72.07;;;;;;;;;;4360984;32;354755;-85
2022/12/27 03:18:13;;;;;;;132.33;78.30;;;;;;;;;;4370864;32;389301;-88
2022/12/27 03:26:18;;;;;;;279.77;149.33;;;;;;;;;;4320783;32;320444;-88
2022/12/27 03:34:34;;;;;;;296.00;153.93;;;;;;;;;;4363513;32;319806;-89
2022/12/27 03:39:55;;;;;;;263.50;140.60;;;;;;;;;;4361381;32;390946;-87
2022/12/27 03:45:11;;;;;;;237.20;132.87;;;;;;;;;;4360293;32;329990;-88
2022/12/27 03:47:46;;;;;;;296.93;148.03;;;;;;;;;;4373054;32;319861;-89
2022/12/27 03:50:21;;;;;;;347.70;157.10;;;;;;;;;;4363336;32;320011;-89
2022/12/27 03:52:51;;;;;;;366.07;154.97;;;;;;;;;;4373717;32;326748;-88
2022/12/27 03:55:19;;;;;;;327.40;148.30;;;;;;;;;;4362136;32;320277;-89
2022/12/27 03:57:45;;;;;;;344.63;150.07;;;;;;;;;;4373522;32;320605;-89
2022/12/27 04:00:13;;;;;;;339.73;148.47;;;;;;;;;;4363472;32;319853;-88
2022/12/27 04:02:40;;;;;;;314.37;139.30;;;;;;;;;;4373152;32;320338;-88
2022/12/27 04:05:08;;;;;;;322.20;143.20;;;;;;;;;;4363263;32;320400;-89
2022/12/27 04:07:36;;;;;;;321.17;146.83;;;;;;;;;;4371241;32;319737;-88
2022/12/27 04:34:43;;;;;;;302.07;145.90;;;;;;;;;;4363226;32;391058;-85
2022/12/27 04:37:12;;;;;;;281.73;138.97;;;;;;;;;;4364804;32;320477;-85
2022/12/27 04:39:41;;;;;;;224.33;115.63;;;;;;;;;;4374950;32;319925;-85
2022/12/27 04:55:59;;;;;;;143.43;76.37;;;;;;;;;;4375027;32;320472;-87
2022/12/27 04:58:26;;;;;;;142.27;72.27;;;;;;;;;;4365511;32;319350;-87
2022/12/27 05:03:38;;;;;;;164.40;76.53;;;;;;;;;;4363472;32;389989;-86
2022/12/27 05:06:07;;;;;;;157.90;75.10;;;;;;;;;;4375017;32;319150;-86
2022/12/27 05:14:06;;;;;;;147.37;72.37;;;;;;;;;;4375421;32;319155;-86
2022/12/27 05:16:36;;;;;;;160.90;74.77;;;;;;;;;;4361074;32;419639;-86
2022/12/27 05:19:03;;;;;;;183.13;77.60;;;;;;;;;;4373723;32;340095;-86
2022/12/27 05:21:30;;;;;;;156.17;78.47;;;;;;;;;;4365933;32;319629;-86
2022/12/27 05:26:42;;;;;;;152.83;73.47;;;;;;;;;;4365142;32;388912;-87
2022/12/27 05:29:09;;;;;;;152.20;74.03;;;;;;;;;;4369155;32;318595;-87
2022/12/27 05:31:36;;;;;;;187.27;80.33;;;;;;;;;;4375376;32;318459;-87
2022/12/27 05:34:04;;;;;;;170.90;82.73;;;;;;;;;;4374506;32;319041;-85
2022/12/27 05:36:31;;;;;;;204.83;93.40;;;;;;;;;;4361991;32;418063;-86
2022/12/27 05:38:58;;;;;;;173.07;89.63;;;;;;;;;;4373695;32;319175;-86
2022/12/27 05:41:25;;;;;;;186.90;89.00;;;;;;;;;;4362927;32;318757;-86
2022/12/27 05:43:53;;;;;;;163.97;78.47;;;;;;;;;;4373499;32;318511;-86
2022/12/27 05:46:21;;;;;;;131.70;72.53;;;;;;;;;;4363298;32;319481;-85
2022/12/27 05:48:48;;;;;;;134.70;64.37;;;;;;;;;;4374594;32;319191;-85
2022/12/27 05:51:17;;;;;;;145.97;74.07;;;;;;;;;;4363335;32;319382;-85
2022/12/27 05:53:45;;;;;;;129.33;68.93;;;;;;;;;;4374562;32;318742;-86
2022/12/27 05:56:14;;;;;;;136.90;69.07;;;;;;;;;;4364631;32;319122;-86
2022/12/27 05:58:41;;;;;;;124.33;65.53;;;;;;;;;;4373290;32;318515;-85
2022/12/27 06:01:11;;;;;;;105.43;59.17;;;;;;;;;;4364392;32;318514;-86
2022/12/27 06:03:40;;;;;;;120.07;65.57;;;;;;;;;;4377999;32;319010;-86
2022/12/27 06:06:08;;;;;;;117.13;64.77;;;;;;;;;;4367453;32;319849;-86
2022/12/27 06:08:36;;;;;;;123.17;63.73;;;;;;;;;;4374591;32;319230;-85
2022/12/27 06:11:07;;;;;;;132.10;69.83;;;;;;;;;;4373193;32;318518;-86
2022/12/27 06:13:34;;;;;;;125.20;69.60;;;;;;;;;;4360160;32;418955;-85
2022/12/27 06:16:02;;;;;;;148.47;73.70;;;;;;;;;;4372811;32;318878;-86
2022/12/27 06:18:33;;;;;;;143.80;76.83;;;;;;;;;;4362900;32;319578;-87
2022/12/27 06:21:05;;;;;;;145.63;70.77;;;;;;;;;;4373726;32;318449;-87
2022/12/27 06:23:32;;;;;;;128.37;73.03;;;;;;;;;;4361101;32;417987;-87
2022/12/27 06:25:59;;;;;;;148.87;78.67;;;;;;;;;;4373704;32;319448;-86
2022/12/27 06:28:26;;;;;;;157.83;90.83;;;;;;;;;;4362709;32;319469;-85
2022/12/27 06:30:53;;;;;;;211.73;111.10;;;;;;;;;;4372466;32;318754;-85
2022/12/27 06:33:19;;;;;;;223.47;108.33;;;;;;;;;;4363642;32;319454;-85
2022/12/27 06:35:48;;;;;;;271.00;118.63;;;;;;;;;;4373372;32;320204;-87
2022/12/27 06:38:14;;;;;;;257.00;123.90;;;;;;;;;;4364264;32;319569;-89
2022/12/27 06:40:41;;;;;;;281.27;123.60;;;;;;;;;;4373247;32;319645;-89
2022/12/27 06:43:08;;;;;;;258.13;127.97;;;;;;;;;;4362567;32;320537;-89
2022/12/27 06:45:35;;;;;;;294.90;132.40;;;;;;;;;;4373686;32;320325;-88
2022/12/27 06:48:02;;;;;;;259.83;128.17;;;;;;;;;;4373914;32;320188;-90
2022/12/27 06:50:28;;;;;;;294.03;137.10;;;;;;;;;;4363508;32;320524;-89
2022/12/27 06:52:57;;;;;;;276.10;135.83;;;;;;;;;;4372238;32;320325;-89
2022/12/27 06:55:24;;;;;;;264.03;128.00;;;;;;;;;;4363230;32;319947;-89
2022/12/27 06:57:51;;;;;;;257.43;129.00;;;;;;;;;;4373784;32;319905;-89
2022/12/27 07:00:19;;;;;;;267.17;134.10;;;;;;;;;;4364814;32;319685;-88
2022/12/27 07:02:46;;;;;;;262.00;140.00;;;;;;;;;;4372940;32;320568;-89
2022/12/27 07:05:13;;;;;;;265.07;138.50;;;;;;;;;;4364393;32;320463;-88
2022/12/27 07:07:39;;;;;;;295.47;143.57;;;;;;;;;;4374560;32;320877;-89
2022/12/27 07:10:09;;;;;;;289.63;142.10;;;;;;;;;;4364947;32;320290;-90
2022/12/27 07:12:36;;;;;;;258.13;133.80;;;;;;;;;;4374045;32;320237;-88
2022/12/27 07:15:03;;;;;;;283.83;142.27;;;;;;;;;;4374113;32;320588;-86
2022/12/27 07:17:29;;;;;;;257.50;142.63;;;;;;;;;;4363480;32;320937;-87
2022/12/27 07:19:56;;;;;;;318.17;159.23;;;;;;;;;;4373260;32;320263;-89
2022/12/27 07:22:23;;;;;;;271.87;150.40;;;;;;;;;;4363325;32;320518;-91
2022/12/27 07:24:50;;;;;;;289.47;148.60;;;;;;;;;;4374999;32;320579;-90
2022/12/27 07:27:18;;;;;;;301.23;152.43;;;;;;;;;;4365510;32;320417;-90
2022/12/27 07:29:45;;;;;;;281.70;152.87;;;;;;;;;;4375843;32;320253;-91
2022/12/27 07:32:11;;;;;;;282.27;154.97;;;;;;;;;;4367585;32;319707;-90
2022/12/27 07:34:38;;;;;;;299.63;158.80;;;;;;;;;;4376087;32;320526;-91
2022/12/27 07:37:05;;;;;;;323.37;174.53;;;;;;;;;;4374104;32;319761;-90
2022/12/27 07:39:32;;;;;;;322.37;173.03;;;;;;;;;;4360055;32;422614;-87
2022/12/27 07:41:59;;;;;;;316.73;173.67;;;;;;;;;;4373162;32;319990;-86
2022/12/27 07:44:27;;;;;;;320.13;174.50;;;;;;;;;;4364142;32;320882;-87
2022/12/27 07:46:53;;;;;;;339.20;193.00;;;;;;;;;;4373487;32;320366;-88
2022/12/27 07:49:20;;;;;;;381.30;209.93;;;;;;;;;;4362779;32;320419;-87
2022/12/27 07:51:47;;;;;;;378.77;205.37;;;;;;;;;;4371846;32;319792;-87
2022/12/27 07:54:14;;;;;;;326.87;187.37;;;;;;;;;;4363013;32;319649;-87
2022/12/27 07:56:40;;;;;;;363.57;208.33;;;;;;;;;;4374394;32;320584;-87
2022/12/27 07:59:12;;;;;;;357.50;203.97;;;;;;;;;;4364982;32;320148;-87
2022/12/27 08:04:24;;;;;;;290.57;168.87;;;;;;;;;;4363060;32;320813;-86
2022/12/27 08:06:51;;;;;;;278.47;165.50;;;;;;;;;;4376705;32;319888;-87
2022/12/27 08:09:24;;;;;;;293.43;159.07;;;;;;;;;;4366473;32;320682;-86
2022/12/27 08:11:50;;;;;;;296.00;159.17;;;;;;;;;;4376202;32;320334;-85
2022/12/27 08:14:17;;;;;;;353.27;198.27;;;;;;;;;;4367020;32;321019;-87
2022/12/27 08:16:45;;;;;;;364.37;184.27;;;;;;;;;;4376153;32;320002;-86
2022/12/27 08:19:12;;;;;;;344.67;180.13;;;;;;;;;;4364707;32;320438;-86
2022/12/27 08:21:39;;;;;;;399.03;208.57;;;;;;;;;;4373701;32;350245;-86
2022/12/27 08:24:06;;;;;;;405.87;213.80;;;;;;;;;;4376066;32;320431;-87
2022/12/27 08:26:33;;;;;;;347.23;176.13;;;;;;;;;;4361823;32;419937;-85
2022/12/27 08:29:00;;;;;;;342.17;182.43;;;;;;;;;;4375655;32;320232;-85
2022/12/27 08:31:26;;;;;;;257.93;137.23;;;;;;;;;;4365740;32;321304;-85
2022/12/27 08:33:55;;;;;;;229.33;129.80;;;;;;;;;;4374640;32;319789;-86
2022/12/27 08:36:22;;;;;;;219.07;123.67;;;;;;;;;;4365110;32;320547;-87
2022/12/27 08:38:49;;;;;;;190.03;103.13;;;;;;;;;;4375535;32;333604;-86
2022/12/27 08:41:20;;;;;;;197.37;109.63;;;;;;;;;;4366126;32;320465;-87
2022/12/27 08:43:47;;;;;;;198.97;111.30;;;;;;;;;;4376287;32;323055;-86
2022/12/27 08:46:14;;;;;;;210.00;112.47;;;;;;;;;;4366217;32;320627;-87
2022/12/27 08:48:41;;;;;;;229.03;122.20;;;;;;;;;;4375505;32;320499;-86
2022/12/27 08:51:09;;;;;;;195.83;106.87;;;;;;;;;;4364982;32;320554;-86
2022/12/27 08:53:36;;;;;;;196.90;103.67;;;;;;;;;;4373623;32;320906;-86
2022/12/27 08:56:03;;;;;;;199.83;112.10;;;;;;;;;;4374904;32;326794;-86
2022/12/27 08:58:30;;;;;;;184.70;109.00;;;;;;;;;;4363989;32;320460;-86
2022/12/27 09:00:56;;;;;;;193.87;108.60;;;;;;;;;;4375160;32;320637;-86
2022/12/27 09:03:23;;;;;;;190.37;109.47;;;;;;;;;;4364210;32;320261;-85
2022/12/27 09:05:50;;;;;;;195.27;114.93;;;;;;;;;;4373496;32;320530;-85
2022/12/27 09:08:18;;;;;;;185.23;109.93;;;;;;;;;;4365337;32;320136;-85
2022/12/27 09:10:45;;;;;;;188.90;104.73;;;;;;;;;;4374904;32;320030;-85
2022/12/27 09:13:12;;;;;;;205.00;115.73;;;;;;;;;;4364723;32;319721;-85
2022/12/27 09:15:39;;;;;;;211.80;120.90;;;;;;;;;;4373489;32;319900;-85
2022/12/27 09:18:06;;;;;;;200.57;117.43;;;;;;;;;;4367819;32;320511;-83
2022/12/27 09:20:33;;;;;;;221.17;121.93;;;;;;;;;;4374600;32;320582;-85
2022/12/27 09:23:00;;;;;;;198.27;118.57;;;;;;;;;;4374116;32;320481;-85
2022/12/27 09:25:28;;;;;;;222.83;121.20;;;;;;;;;;4364880;32;320458;-85
2022/12/27 09:27:55;;;;;;;203.60;116.00;;;;;;;;;;4374848;32;320496;-85
2022/12/27 09:30:21;;;;;;;209.87;115.83;;;;;;;;;;4365188;32;320691;-86
2022/12/27 09:32:48;;;;;;;199.20;113.07;;;;;;;;;;4373648;32;320464;-85
2022/12/27 09:35:15;;;;;;;149.10;88.13;;;;;;;;;;4362743;32;344746;-85
2022/12/27 09:37:42;;;;;;;194.00;112.40;;;;;;;;;;4374447;32;318773;-85
2022/12/27 09:40:13;;;;;;;176.70;108.93;;;;;;;;;;4364058;32;319792;-84
2022/12/27 09:42:47;;;;;;;173.17;101.07;;;;;;;;;;4373447;32;334122;-84
2022/12/27 09:45:17;;;;;;;175.67;101.93;;;;;;;;;;4363799;32;320618;-84
2022/12/27 09:47:52;;;;;;;160.63;94.87;;;;;;;;;;4373004;32;320412;-83
2022/12/27 09:50:25;;;;;;;152.63;86.73;;;;;;;;;;4363961;32;319696;-82
2022/12/27 09:52:59;;;;;;;135.70;80.93;;;;;;;;;;4372686;32;319448;-83
2022/12/27 09:55:36;;;;;;;124.60;71.73;;;;;;;;;;4363086;32;319406;-81
2022/12/27 09:58:17;;;;;;;192.73;110.30;;;;;;;;;;4373378;32;318808;-85
2022/12/27 10:00:44;;;;;;;203.70;113.50;;;;;;;;;;4360620;32;420436;-82
2022/12/27 10:03:11;;;;;;;220.93;128.07;;;;;;;;;;4363249;32;328712;-82
2022/12/27 10:05:39;;;;;;;214.83;130.57;;;;;;;;;;4372450;32;320345;-82
2022/12/27 10:08:20;;;;;;;214.90;123.50;;;;;;;;;;4373924;32;320417;-82
2022/12/27 10:10:57;;;;;;;230.93;139.80;;;;;;;;;;4359672;32;417663;-82
2022/12/27 10:13:38;;;;;;;268.03;149.47;;;;;;;;;;4362316;32;320367;-81
2022/12/27 10:16:20;;;;;;;243.47;142.83;;;;;;;;;;4373379;32;321308;-82
2022/12/27 10:19:05;;;;;;;284.00;157.43;;;;;;;;;;4359328;32;420131;-81
2022/12/27 10:21:38;;;;;;;261.40;146.00;;;;;;;;;;4360334;32;420261;-82
2022/12/27 10:24:17;;;;;;;237.27;140.43;;;;;;;;;;4373401;32;320514;-82
2022/12/27 10:26:44;;;;;;;242.33;143.90;;;;;;;;;;4360216;32;420399;-82
2022/12/27 10:29:19;;;;;;;223.10;134.90;;;;;;;;;;4361519;32;389256;-82
2022/12/27 10:31:46;;;;;;;227.00;134.40;;;;;;;;;;4373780;32;320739;-83
2022/12/27 10:34:16;;;;;;;259.40;146.30;;;;;;;;;;4363831;32;320518;-83
2022/12/27 10:36:44;;;;;;;273.70;159.47;;;;;;;;;;4374734;32;319712;-82
2022/12/27 10:39:17;;;;;;;267.77;157.43;;;;;;;;;;4364367;32;321000;-81
2022/12/27 10:41:54;;;;;;;279.47;164.53;;;;;;;;;;4374165;32;320442;-82
2022/12/27 10:44:23;;;;;;;263.20;157.40;;;;;;;;;;4363277;32;320409;-82
2022/12/27 10:46:53;;;;;;;272.33;161.73;;;;;;;;;;4372046;32;320425;-82
2022/12/27 10:49:24;;;;;;;226.63;143.97;;;;;;;;;;4361588;32;319812;-83
2022/12/27 10:51:52;;;;;;;219.90;138.83;;;;;;;;;;4373067;32;320391;-82
2022/12/27 10:54:23;;;;;;;228.50;139.33;;;;;;;;;;4361738;32;320563;-82
2022/12/27 10:56:50;;;;;;;236.30;138.23;;;;;;;;;;4372850;32;319720;-82
2022/12/27 10:59:19;;;;;;;219.17;132.17;;;;;;;;;;4362781;32;320485;-82
2022/12/27 11:01:50;;;;;;;216.67;137.37;;;;;;;;;;4372638;32;320406;-82
2022/12/27 11:04:19;;;;;;;250.67;151.33;;;;;;;;;;4362256;32;320521;-83
2022/12/27 11:06:47;;;;;;;241.50;151.87;;;;;;;;;;4372622;32;320423;-82
2022/12/27 11:09:29;;;;;;;234.43;146.47;;;;;;;;;;4361535;32;320582;-82
2022/12/27 11:12:13;;;;;;;273.67;149.53;;;;;;;;;;4371142;32;341383;-83
2022/12/27 11:14:40;;;;;;;228.77;143.13;;;;;;;;;;4359797;32;420663;-83
2022/12/27 11:17:10;;;;;;;230.57;142.03;;;;;;;;;;4361938;32;320434;-83
2022/12/27 11:19:39;;;;;;;250.13;148.90;;;;;;;;;;4370628;32;335232;-83
2022/12/27 11:22:07;;;;;;;216.60;134.10;;;;;;;;;;4368805;32;321682;-83
2022/12/27 11:24:34;;;;;;;198.10;125.60;;;;;;;;;;4371226;32;320769;-83
2022/12/27 11:27:02;;;;;;;223.70;136.90;;;;;;;;;;4371265;32;320747;-82
2022/12/27 11:29:32;;;;;;;200.10;123.43;;;;;;;;;;4364619;32;321239;-81
2022/12/27 11:32:05;;;;;;;174.37;110.23;;;;;;;;;;4374028;32;320556;-81
2022/12/27 11:34:37;;;;;;;163.03;104.40;;;;;;;;;;4359184;32;420235;-83
2022/12/27 11:37:09;;;;;;;129.43;81.33;;;;;;;;;;4372856;32;321440;-80
2022/12/27 11:39:44;;;;;;;112.87;76.03;;;;;;;;;;4357500;32;420420;-82
2022/12/27 11:42:18;;;;;;;119.17;71.13;;;;;;;;;;4362234;32;320245;-82
2022/12/27 11:44:52;;;;;;;120.40;77.27;;;;;;;;;;4371870;32;320427;-82
2022/12/27 11:47:27;;;;;;;97.00;58.37;;;;;;;;;;4361181;32;323643;-82
2022/12/27 11:50:00;;;;;;;90.10;50.80;;;;;;;;;;4371063;32;317531;-82
2022/12/27 11:52:46;;;;;;;86.97;53.53;;;;;;;;;;4360562;32;341064;-82
2022/12/27 11:55:42;;;;;;;203.43;94.43;;;;;;;;;;4362328;32;317573;-84
2022/12/27 11:58:27;;;;;;;111.00;62.03;;;;;;;;;;4362132;32;319772;-82
2022/12/27 12:01:00;;;;;;;86.57;50.37;;;;;;;;;;4372301;32;319323;-85
2022/12/27 12:04:03;;;;;;;77.83;47.43;;;;;;;;;;4362154;32;318228;-82
2022/12/27 12:06:44;;;;;;;58.67;35.73;;;;;;;;;;4345989;32;318304;-83
2022/12/27 12:09:35;;;;;;;61.73;34.93;;;;;;;;;;4362267;32;318424;-82
2022/12/27 12:12:34;;;;;;;51.17;30.27;;;;;;;;;;4371361;32;318637;-84
2022/12/27 12:15:33;;;;;;;71.03;31.93;;;;;;;;;;4337880;32;419917;-84
2022/12/27 12:18:11;;;;;;;65.43;35.67;;;;;;;;;;4345603;32;418119;-83
2022/12/27 12:21:08;;;;;;;63.80;41.70;;;;;;;;;;4359607;32;418651;-85
2022/12/27 12:23:49;;;;;;;67.07;40.67;;;;;;;;;;4359661;32;418317;-82
2022/12/27 12:26:18;;;;;;;64.57;39.50;;;;;;;;;;4361343;32;318207;-82
2022/12/27 12:29:04;;;;;;;79.87;44.50;;;;;;;;;;4371317;32;318188;-84
2022/12/27 12:31:51;;;;;;;75.33;42.17;;;;;;;;;;4362125;32;317909;-82
2022/12/27 12:34:42;;;;;;;131.57;58.53;;;;;;;;;;4361873;32;318156;-81
2022/12/27 12:37:17;;;;;;;88.13;48.53;;;;;;;;;;4362221;32;318713;-84
2022/12/27 12:40:05;;;;;;;146.50;64.37;;;;;;;;;;4370974;32;318395;-85
2022/12/27 12:42:40;;;;;;;118.63;62.17;;;;;;;;;;4357991;32;418965;-85
2022/12/27 12:45:28;;;;;;;184.83;89.27;;;;;;;;;;4366261;32;320553;-84
2022/12/27 12:48:15;;;;;;;349.83;209.13;;;;;;;;;;4370455;32;323356;-84
2022/12/27 12:51:01;;;;;;;207.90;132.87;;;;;;;;;;4359524;32;421654;-86
2022/12/27 12:53:46;;;;;;;410.30;283.73;;;;;;;;;;4363756;32;348218;-85
2022/12/27 12:56:31;;;;;;;98.77;66.63;;;;;;;;;;4364765;32;321555;-85
2022/12/27 12:59:13;;;;;;;86.17;53.63;;;;;;;;;;4373561;32;319237;-84
2022/12/27 13:01:52;;;;;;;86.20;51.77;;;;;;;;;;4362017;32;419469;-84
2022/12/27 13:05:00;;;;;;;64.40;40.97;;;;;;;;;;4364888;32;319369;-85
2022/12/27 13:07:50;;;;;;;62.93;38.03;;;;;;;;;;4363337;32;318489;-84
2022/12/27 13:10:56;;;;;;;59.03;42.03;;;;;;;;;;4363377;32;319325;-85
2022/12/27 13:13:34;;;;;;;62.70;40.17;;;;;;;;;;4363214;32;358495;-84
2022/12/27 13:16:16;;;;;;;98.30;62.07;;;;;;;;;;4374481;32;319176;-84
2022/12/27 13:18:55;;;;;;;92.53;60.53;;;;;;;;;;4361081;32;419270;-85
2022/12/27 13:21:35;;;;;;;75.70;48.37;;;;;;;;;;4364600;32;319265;-85
2022/12/27 13:24:10;;;;;;;76.80;49.10;;;;;;;;;;4374238;32;318674;-85
2022/12/27 13:26:47;;;;;;;73.93;46.97;;;;;;;;;;4360517;32;421339;-84
2022/12/27 13:29:34;;;;;;;71.23;47.13;;;;;;;;;;4363232;32;319449;-84
2022/12/27 13:32:11;;;;;;;73.87;48.40;;;;;;;;;;4374345;32;319760;-85
2022/12/27 13:34:48;;;;;;;89.13;56.53;;;;;;;;;;4360128;32;419291;-84
2022/12/27 13:37:25;;;;;;;100.73;61.87;;;;;;;;;;4362566;32;351736;-84
2022/12/27 13:40:23;;;;;;;120.83;64.67;;;;;;;;;;4373083;32;320651;-84
2022/12/27 13:43:06;;;;;;;133.27;76.53;;;;;;;;;;4359996;32;420223;-84
2022/12/27 13:45:56;;;;;;;155.23;94.87;;;;;;;;;;4372087;32;419695;-84
2022/12/27 13:48:47;;;;;;;206.20;121.60;;;;;;;;;;4362891;32;320402;-84
2022/12/27 13:51:34;;;;;;;211.60;126.90;;;;;;;;;;4363147;32;321709;-87
2022/12/27 13:54:38;;;;;;;228.50;123.17;;;;;;;;;;4372612;32;320745;-85
2022/12/27 13:57:19;;;;;;;151.73;87.80;;;;;;;;;;4371368;32;420813;-86
2022/12/27 14:00:11;;;;;;;143.77;83.70;;;;;;;;;;4360668;32;420805;-85
2022/12/27 14:03:17;;;;;;;146.73;83.33;;;;;;;;;;4360286;32;420204;-84
2022/12/27 14:06:22;;;;;;;147.07;84.33;;;;;;;;;;4359878;32;420527;-84
2022/12/27 14:09:32;;;;;;;151.60;86.73;;;;;;;;;;4360675;32;420028;-84
2022/12/27 14:12:25;;;;;;;175.87;102.60;;;;;;;;;;4360643;32;420670;-83
2022/12/27 14:14:54;;;;;;;190.63;100.63;;;;;;;;;;4359314;32;420587;-84
2022/12/27 14:17:30;;;;;;;185.13;98.53;;;;;;;;;;4362500;32;342507;-84
2022/12/27 14:20:36;;;;;;;217.63;103.70;;;;;;;;;;4372317;32;320212;-84
2022/12/27 14:23:21;;;;;;;129.07;70.00;;;;;;;;;;4369004;32;420615;-84
2022/12/27 14:26:22;;;;;;;137.60;71.60;;;;;;;;;;4358947;32;420435;-84
2022/12/27 14:29:27;;;;;;;177.97;91.07;;;;;;;;;;4359023;32;420604;-84
2022/12/27 14:32:19;;;;;;;158.37;87.90;;;;;;;;;;4360381;32;420605;-84
2022/12/27 14:35:28;;;;;;;166.20;89.20;;;;;;;;;;4360376;32;420240;-84
2022/12/27 14:38:32;;;;;;;107.83;59.57;;;;;;;;;;4360137;32;420257;-84
2022/12/27 14:41:41;;;;;;;118.73;59.43;;;;;;;;;;4348250;32;420944;-84
2022/12/27 14:44:45;;;;;;;146.23;71.63;;;;;;;;;;4354109;32;420206;-84
2022/12/27 14:47:42;;;;;;;142.60;69.63;;;;;;;;;;4361903;32;325222;-84
2022/12/27 14:50:39;;;;;;;133.27;69.73;;;;;;;;;;4360115;32;396745;-84
2022/12/27 14:53:39;;;;;;;93.63;56.17;;;;;;;;;;4372528;32;320275;-84
2022/12/27 14:56:20;;;;;;;124.23;76.63;;;;;;;;;;4369797;32;418993;-82
2022/12/27 14:58:58;;;;;;;303.93;185.10;;;;;;;;;;4359414;32;420430;-82
2022/12/27 15:01:40;;;;;;;194.07;123.90;;;;;;;;;;4361472;32;321391;-82
2022/12/27 15:04:33;;;;;;;165.97;100.97;;;;;;;;;;4362746;32;321761;-83
2022/12/27 15:07:29;;;;;;;162.97;92.27;;;;;;;;;;4372766;32;321566;-83
2022/12/27 15:10:04;;;;;;;191.00;107.20;;;;;;;;;;4366911;32;420303;-83
2022/12/27 15:12:44;;;;;;;282.00;154.97;;;;;;;;;;4363144;32;321337;-83
2022/12/27 15:15:21;;;;;;;275.57;156.47;;;;;;;;;;4362097;32;321444;-82
2022/12/27 15:18:11;;;;;;;279.27;159.53;;;;;;;;;;4371980;32;319684;-82
2022/12/27 15:21:13;;;;;;;279.87;161.30;;;;;;;;;;4360409;32;420671;-82
2022/12/27 15:23:51;;;;;;;289.77;170.97;;;;;;;;;;4360808;32;420401;-82
2022/12/27 15:26:25;;;;;;;287.27;177.70;;;;;;;;;;4361431;32;320367;-82
2022/12/27 15:29:18;;;;;;;266.90;165.87;;;;;;;;;;4372633;32;321721;-83
2022/12/27 15:31:56;;;;;;;276.23;175.13;;;;;;;;;;4355625;32;421650;-83
2022/12/27 15:34:37;;;;;;;281.17;172.50;;;;;;;;;;4362231;32;321601;-83
2022/12/27 15:37:05;;;;;;;269.20;162.57;;;;;;;;;;4371551;32;321655;-83
2022/12/27 15:39:50;;;;;;;240.47;145.77;;;;;;;;;;4357850;32;423089;-84
2022/12/27 15:42:38;;;;;;;225.47;141.57;;;;;;;;;;4361211;32;321328;-84
2022/12/27 15:45:14;;;;;;;209.17;132.87;;;;;;;;;;4370967;32;321257;-83
2022/12/27 15:47:56;;;;;;;187.37;119.70;;;;;;;;;;4358037;32;421012;-82
2022/12/27 15:50:33;;;;;;;186.73;110.53;;;;;;;;;;4362116;32;320797;-83
2022/12/27 15:53:32;;;;;;;139.47;89.63;;;;;;;;;;4372082;32;321814;-83
2022/12/27 15:56:38;;;;;;;131.23;82.27;;;;;;;;;;4357710;32;419811;-82
2022/12/27 15:59:40;;;;;;;132.37;86.70;;;;;;;;;;4348761;32;420232;-82
2022/12/27 16:02:29;;;;;;;151.50;86.40;;;;;;;;;;4365698;32;419991;-85
2022/12/27 16:05:00;;;;;;;119.33;77.83;;;;;;;;;;4372287;32;320247;-82
2022/12/27 16:07:52;;;;;;;128.20;82.30;;;;;;;;;;4361691;32;325085;-82
2022/12/27 16:10:49;;;;;;;154.27;95.47;;;;;;;;;;4354466;32;320512;-82